createdAt,value
2022-08-17T00:05:09.118Z,75.26
2022-08-17T00:15:11.917Z,75.49
2022-08-17T00:25:17.497Z,75.65
2022-08-17T00:35:22.213Z,75.64
2022-08-17T00:45:23.678Z,75.97
2022-08-17T00:55:25.971Z,75.77
2022-08-17T01:05:31.126Z,76.22
2022-08-17T01:15:36.356Z,76.47
2022-08-17T01:25:38.111Z,76.52
2022-08-17T01:35:40.593Z,76.42
2022-08-17T01:45:46.212Z,75.76
2022-08-17T01:55:51.574Z,76.47
2022-08-17T02:05:53.194Z,76.70
2022-08-17T02:15:54.593Z,77.65
2022-08-17T02:25:58.724Z,78.54
2022-08-17T02:36:00.385Z,78.33
2022-08-17T02:46:01.881Z,78.78
2022-08-17T02:56:04.040Z,78.93
2022-08-17T03:06:07.024Z,78.48
2022-08-17T03:16:08.596Z,80.39
2022-08-17T03:26:12.164Z,82.15
2022-08-17T03:36:16.866Z,82.03
2022-08-17T03:46:28.810Z,81.64
2022-08-17T03:56:37.210Z,82.04
2022-08-17T04:06:39.958Z,83.32
2022-08-17T04:16:41.397Z,84.23
2022-08-17T04:26:52.645Z,84.03
2022-08-17T04:36:55.938Z,85.26
2022-08-17T04:46:57.356Z,86.34
2022-08-17T04:56:58.783Z,85.56
2022-08-17T05:07:00.384Z,84.90
2022-08-17T05:17:07.023Z,83.78
2022-08-17T05:27:08.898Z,84.04
2022-08-17T05:37:10.315Z,82.86
2022-08-17T05:47:11.827Z,78.50
2022-08-17T05:57:20.870Z,71.82
2022-08-17T06:07:37.563Z,70.83
2022-08-17T06:17:40.571Z,71.73
2022-08-17T06:27:55.619Z,70.27
2022-08-17T06:38:19.887Z,68.93
2022-08-17T06:48:52.152Z,66.66
2022-08-17T06:58:57.186Z,65.05
2022-08-17T07:09:05.879Z,60.46
2022-08-17T07:19:11.050Z,61.38
2022-08-17T07:29:17.558Z,62.71
2022-08-17T07:39:26.791Z,62.90
2022-08-17T07:49:31.070Z,61.45
2022-08-17T07:59:35.994Z,59.41
2022-08-17T08:09:46.939Z,56.68
2022-08-17T08:19:48.406Z,58.79
2022-08-17T08:29:55.486Z,55.90
2022-08-17T08:40:09.227Z,53.03
2022-08-17T08:50:38.089Z,51.52
2022-08-17T09:00:45.616Z,51.29
2022-08-17T09:10:59.263Z,50.65
2022-08-17T09:21:10.865Z,52.17
2022-08-17T09:31:33.352Z,48.38
2022-08-17T09:41:48.711Z,51.06
2022-08-17T09:52:05.461Z,50.65
2022-08-17T10:02:25.736Z,46.98
2022-08-17T10:12:53.215Z,44.57
2022-08-17T10:23:00.929Z,42.74
2022-08-17T10:33:06.329Z,43.72
2022-08-17T10:43:44.663Z,41.93
2022-08-17T10:54:07.003Z,42.58
2022-08-17T11:04:51.641Z,40.30
2022-08-17T11:15:11.350Z,40.69
2022-08-17T11:25:21.402Z,41.44
2022-08-17T11:35:22.761Z,42.67
2022-08-17T11:46:01.485Z,41.75
2022-08-17T11:56:08.264Z,43.39
2022-08-17T12:06:09.642Z,44.42
2022-08-17T12:16:17.301Z,42.89
2022-08-17T12:26:22.953Z,43.63
2022-08-17T12:36:27.517Z,43.59
2022-08-17T12:46:42.776Z,42.73
2022-08-17T12:56:46.130Z,42.65
2022-08-17T13:06:50.865Z,42.00
2022-08-17T13:17:02.930Z,43.18
2022-08-17T13:27:09.880Z,43.30
2022-08-17T13:37:23.459Z,43.16
2022-08-17T13:47:25.267Z,44.21
2022-08-17T13:57:27.031Z,43.75
2022-08-17T14:07:32.716Z,45.18
2022-08-17T14:17:47.090Z,44.46
2022-08-17T14:27:52.735Z,43.44
2022-08-17T14:37:55.516Z,40.59
2022-08-17T14:47:56.958Z,41.02
2022-08-17T14:57:59.477Z,42.57
2022-08-17T15:08:01.749Z,41.95
2022-08-17T15:18:03.673Z,43.91
2022-08-17T15:28:05.488Z,43.64
2022-08-17T15:38:12.070Z,44.90
2022-08-17T15:48:13.877Z,45.18
2022-08-17T15:58:15.306Z,46.20
2022-08-17T16:08:21.483Z,48.58
2022-08-17T16:18:24.496Z,48.43
2022-08-17T16:28:35.837Z,47.89
2022-08-17T16:38:37.964Z,50.29
2022-08-17T16:48:39.375Z,50.52
2022-08-17T16:58:40.835Z,51.08
2022-08-17T17:08:52.272Z,52.55
2022-08-17T17:18:59.775Z,53.87
2022-08-17T17:29:14.991Z,52.64
2022-08-17T17:39:30.721Z,52.70
2022-08-17T17:49:41.689Z,52.60
2022-08-17T18:00:01.661Z,53.63
2022-08-17T18:10:31.782Z,55.23
2022-08-17T18:20:43.250Z,53.75
2022-08-17T18:31:15.312Z,67.12
2022-08-17T18:41:20.987Z,100.00
2022-08-17T18:51:41.596Z,100.00
2022-08-17T19:01:58.898Z,100.00
2022-08-17T19:12:06.337Z,100.00
2022-08-17T19:22:29.087Z,100.00
2022-08-17T19:32:34.547Z,100.00
2022-08-17T19:42:42.236Z,100.00
2022-08-17T19:52:53.398Z,100.00
2022-08-17T20:03:07.128Z,100.00
2022-08-17T20:13:14.934Z,100.00
2022-08-17T20:23:49.943Z,100.00
2022-08-17T20:33:51.376Z,100.00
2022-08-17T20:43:58.973Z,100.00
2022-08-17T20:54:27.232Z,100.00
2022-08-17T21:04:49.895Z,100.00
2022-08-17T21:15:02.898Z,100.00
2022-08-17T21:25:34.936Z,100.00
2022-08-17T21:35:52.485Z,100.00
2022-08-17T21:46:01.035Z,100.00
2022-08-17T21:56:02.735Z,100.00
2022-08-17T22:06:25.288Z,100.00
2022-08-17T22:16:28.293Z,100.00
2022-08-17T22:27:04.377Z,100.00
2022-08-17T22:37:28.477Z,100.00
2022-08-17T22:47:34.084Z,100.00
2022-08-17T22:57:36.016Z,100.00
2022-08-17T23:07:37.480Z,100.00
2022-08-17T23:17:38.895Z,100.00
2022-08-17T23:27:40.375Z,100.00
2022-08-17T23:37:41.810Z,100.00
2022-08-17T23:47:43.244Z,100.00
2022-08-17T23:57:44.691Z,100.00
